East Smethport, Pennsylvania
Current Conditions -  °F | °C
As of 6:53 AM on Sunday 25 Jan 2015 (Local Time) from KBFD Reporting Station
Overcast Overcast  
Wind Chill: 14°   Ceiling: 1200
Heat Index: 25°   Visibility: 10mi
Dew Point: 20°   Wind: 12mph
Humidity: 81%   Direction: 320°NW
Pressure: 29.67"   Gusts: NA
Location:  41.81°N, 78.42°W
Report Text: KBFD 251153Z AUTO 32010KT 10SM OVC012 M04/M07 A2967 RMK AO2 SLP072 60002 70004 I6001 T10391067 11011 21039 53018
Loading
Personal Weather Stations






























Interactive Weather Map New forecast layout! Learn more

10-Day Weather Forecast

Advertisements
Track Severe Weather on mobile